createdAt,value
2018-10-12T00:00:40.907Z,16.01
2018-10-12T00:01:40.648Z,16.01
2018-10-12T00:02:40.910Z,15.94
2018-10-12T00:03:41.174Z,15.98
2018-10-12T00:04:40.657Z,15.97
2018-10-12T00:05:40.918Z,16
2018-10-12T00:06:40.910Z,15.94
2018-10-12T00:07:40.921Z,16
2018-10-12T00:08:40.910Z,15.88
2018-10-12T00:09:40.918Z,15.88
2018-10-12T00:10:40.918Z,15.84
2018-10-12T00:11:40.918Z,15.83
2018-10-12T00:12:41.153Z,15.84
2018-10-12T00:13:40.906Z,15.83
2018-10-12T00:14:40.894Z,15.76
2018-10-12T00:15:41.144Z,15.73
2018-10-12T00:16:41.159Z,15.77
2018-10-12T00:17:41.160Z,15.76
2018-10-12T00:18:40.642Z,15.72
2018-10-12T00:19:41.155Z,15.8
2018-10-12T00:20:40.900Z,15.7
2018-10-12T00:21:40.891Z,15.65
2018-10-12T00:22:40.630Z,15.65
2018-10-12T00:23:40.656Z,15.64
2018-10-12T00:24:40.891Z,15.64
2018-10-12T00:25:41.138Z,15.73
2018-10-12T00:26:40.885Z,15.75
2018-10-12T00:27:40.875Z,15.68
2018-10-12T00:28:41.135Z,15.76
2018-10-12T00:29:41.136Z,15.73
2018-10-12T00:30:40.879Z,15.59
2018-10-12T00:31:41.146Z,15.7
2018-10-12T00:32:41.429Z,15.72
2018-10-12T00:33:40.637Z,15.65
2018-10-12T00:34:40.891Z,15.65
2018-10-12T00:35:41.136Z,15.7
2018-10-12T00:36:41.126Z,15.62
2018-10-12T00:37:40.887Z,15.61
2018-10-12T00:38:40.880Z,15.62
2018-10-12T00:39:40.870Z,15.65
2018-10-12T00:40:40.907Z,15.65
2018-10-12T00:41:40.604Z,15.65
2018-10-12T00:42:41.242Z,15.65
2018-10-12T00:43:40.864Z,15.68
2018-10-12T00:44:40.605Z,15.61
2018-10-12T00:45:41.130Z,15.68
2018-10-12T00:46:40.596Z,15.7
2018-10-12T00:47:41.106Z,15.64
2018-10-12T00:48:40.842Z,15.7
2018-10-12T00:49:41.254Z,15.58
2018-10-12T00:50:41.116Z,15.68
2018-10-12T00:51:41.111Z,15.64
2018-10-12T00:52:41.190Z,15.75
2018-10-12T00:53:41.099Z,15.77
2018-10-12T00:54:40.846Z,15.77
2018-10-12T00:55:40.852Z,15.73
2018-10-12T00:56:41.105Z,15.8
2018-10-12T00:57:41.647Z,15.82
2018-10-12T00:58:41.109Z,15.88
2018-10-12T00:59:41.123Z,15.86
2018-10-12T01:00:41.099Z,15.88
2018-10-12T01:01:41.149Z,15.95
2018-10-12T01:02:40.827Z,15.97
2018-10-12T01:03:41.113Z,15.95
2018-10-12T01:04:41.087Z,16
2018-10-12T01:05:40.828Z,15.88
2018-10-12T01:06:41.419Z,15.9
2018-10-12T01:07:40.820Z,15.9
2018-10-12T01:08:41.089Z,15.86
2018-10-12T01:09:41.081Z,15.86
2018-10-12T01:10:41.074Z,15.86
2018-10-12T01:11:41.085Z,15.88
2018-10-12T01:12:41.082Z,15.8
2018-10-12T01:13:40.820Z,15.79
2018-10-12T01:14:40.826Z,15.77
2018-10-12T01:15:40.832Z,15.73
2018-10-12T01:16:40.821Z,15.75
2018-10-12T01:17:41.139Z,15.68
2018-10-12T01:18:40.819Z,15.68
2018-10-12T01:19:40.889Z,15.76
2018-10-12T01:20:41.060Z,15.73
2018-10-12T01:21:41.072Z,15.76
2018-10-12T01:22:40.808Z,15.79
2018-10-12T01:23:41.650Z,15.8
2018-10-12T01:24:40.823Z,15.8
2018-10-12T01:25:40.811Z,15.8
2018-10-12T01:26:41.073Z,15.79
2018-10-12T01:27:41.057Z,15.84
2018-10-12T01:28:41.056Z,15.83
2018-10-12T01:29:41.055Z,15.83
2018-10-12T01:30:40.809Z,15.76
2018-10-12T01:31:40.810Z,15.7
2018-10-12T01:32:41.070Z,15.76
2018-10-12T01:33:42.665Z,15.76
2018-10-12T01:34:40.804Z,15.76
2018-10-12T01:35:41.066Z,15.72
2018-10-12T01:36:41.047Z,15.7
2018-10-12T01:37:41.042Z,15.61
2018-10-12T01:38:41.060Z,15.61
2018-10-12T01:39:41.042Z,15.57
2018-10-12T01:40:40.783Z,15.62
2018-10-12T01:41:40.789Z,15.61
2018-10-12T01:42:40.776Z,15.73
2018-10-12T01:43:41.062Z,15.79
2018-10-12T01:44:40.770Z,15.68
2018-10-12T01:45:40.787Z,15.64
2018-10-12T01:46:40.783Z,15.7
2018-10-12T01:47:40.508Z,15.72
2018-10-12T01:48:40.775Z,15.67
2018-10-12T01:49:40.770Z,15.7
2018-10-12T01:50:41.022Z,15.72
2018-10-12T01:51:40.766Z,15.76
2018-10-12T01:52:41.015Z,15.75
2018-10-12T01:53:41.027Z,15.77
2018-10-12T01:54:40.757Z,15.76
2018-10-12T01:55:41.010Z,15.68
2018-10-12T01:56:40.526Z,15.76
2018-10-12T01:57:41.012Z,15.76
2018-10-12T01:58:40.493Z,15.73
2018-10-12T01:59:41.020Z,15.76
2018-10-12T02:00:41.012Z,15.77
2018-10-12T02:01:40.758Z,15.76
2018-10-12T02:02:40.996Z,15.77
2018-10-12T02:03:40.759Z,15.8
2018-10-12T02:04:40.754Z,15.77
2018-10-12T02:05:41.023Z,15.72
2018-10-12T02:06:40.762Z,15.77
2018-10-12T02:07:40.764Z,15.73
2018-10-12T02:08:40.742Z,15.72
2018-10-12T02:09:40.991Z,15.77
2018-10-12T02:10:40.991Z,15.77
2018-10-12T02:11:41.005Z,15.77
2018-10-12T02:12:40.983Z,15.77
2018-10-12T02:13:40.756Z,15.8
2018-10-12T02:14:40.981Z,15.72
2018-10-12T02:15:40.974Z,15.67
2018-10-12T02:16:40.736Z,15.73
2018-10-12T02:17:40.747Z,15.79
2018-10-12T02:18:40.727Z,15.75
2018-10-12T02:19:40.980Z,15.73
2018-10-12T02:20:40.719Z,15.75
2018-10-12T02:21:40.721Z,15.77
2018-10-12T02:22:40.973Z,15.76
2018-10-12T02:23:41.095Z,15.76
2018-10-12T02:24:40.973Z,15.76
2018-10-12T02:25:40.723Z,15.77
2018-10-12T02:26:40.736Z,15.75
2018-10-12T02:27:40.979Z,15.73
2018-10-12T02:28:40.963Z,15.72
2018-10-12T02:29:40.722Z,15.77
2018-10-12T02:30:40.704Z,15.75
2018-10-12T02:31:40.967Z,15.76
2018-10-12T02:32:40.964Z,15.75
2018-10-12T02:33:40.704Z,15.86
2018-10-12T02:34:40.974Z,15.84
2018-10-12T02:35:40.958Z,15.86
2018-10-12T02:36:40.955Z,15.83
2018-10-12T02:37:40.962Z,15.8
2018-10-12T02:38:40.935Z,15.8
2018-10-12T02:39:40.996Z,15.82
2018-10-12T02:40:40.686Z,15.82
2018-10-12T02:41:40.940Z,15.83
2018-10-12T02:42:40.954Z,15.8
2018-10-12T02:43:40.942Z,15.83
2018-10-12T02:44:40.951Z,15.68
2018-10-12T02:45:40.684Z,15.77
2018-10-12T02:46:40.936Z,15.75
2018-10-12T02:47:40.715Z,15.72
2018-10-12T02:48:40.932Z,15.68
2018-10-12T02:49:40.925Z,15.62
2018-10-12T02:50:40.696Z,15.65
2018-10-12T02:51:40.922Z,15.7
2018-10-12T02:52:40.667Z,15.65
2018-10-12T02:53:40.669Z,15.64
2018-10-12T02:54:40.427Z,15.57
2018-10-12T02:55:40.665Z,15.57
2018-10-12T02:56:40.423Z,15.54
2018-10-12T02:57:40.668Z,15.54
2018-10-12T02:58:40.927Z,15.61
2018-10-12T02:59:40.923Z,15.51
2018-10-12T03:00:40.933Z,15.44
2018-10-12T03:01:40.666Z,15.42
2018-10-12T03:02:40.395Z,15.43
2018-10-12T03:03:40.913Z,15.36
2018-10-12T03:04:40.908Z,15.37
2018-10-12T03:05:40.668Z,15.28
2018-10-12T03:06:40.654Z,15.27
2018-10-12T03:07:40.664Z,15.37
2018-10-12T03:08:40.641Z,15.27
2018-10-12T03:09:40.649Z,15.28
2018-10-12T03:10:40.896Z,15.31
2018-10-12T03:11:40.913Z,15.29
2018-10-12T03:12:40.654Z,15.33
2018-10-12T03:13:40.648Z,15.25
2018-10-12T03:14:40.647Z,15.33
2018-10-12T03:15:40.880Z,15.35
2018-10-12T03:16:40.634Z,15.37
2018-10-12T03:17:40.607Z,15.36
2018-10-12T03:18:40.875Z,15.39
2018-10-12T03:19:40.610Z,15.36
2018-10-12T03:20:40.866Z,15.43
2018-10-12T03:21:40.613Z,15.43
2018-10-12T03:22:40.638Z,15.42
2018-10-12T03:23:40.886Z,15.42
2018-10-12T03:24:40.625Z,15.4
2018-10-12T03:25:40.878Z,15.47
2018-10-12T03:26:40.888Z,15.51
2018-10-12T03:27:40.615Z,15.52
2018-10-12T03:28:40.349Z,15.49
2018-10-12T03:29:40.660Z,15.57
2018-10-12T03:30:40.629Z,15.55
2018-10-12T03:31:40.883Z,15.58
2018-10-12T03:32:40.864Z,15.55
2018-10-12T03:33:40.848Z,15.44
2018-10-12T03:34:40.587Z,15.55
2018-10-12T03:35:40.857Z,15.49
2018-10-12T03:36:40.628Z,15.42
2018-10-12T03:37:40.861Z,15.42
2018-10-12T03:38:40.592Z,15.37
2018-10-12T03:39:40.600Z,15.37
2018-10-12T03:40:40.593Z,15.31
2018-10-12T03:41:40.874Z,15.27
2018-10-12T03:42:40.664Z,15.24
2018-10-12T03:43:40.603Z,15.29
2018-10-12T03:44:40.599Z,15.35
2018-10-12T03:45:40.839Z,15.27
2018-10-12T03:46:40.577Z,15.27
2018-10-12T03:47:40.838Z,15.17
2018-10-12T03:48:40.339Z,15.21
2018-10-12T03:49:40.840Z,15.15
2018-10-12T03:50:40.563Z,15.14
2018-10-12T03:51:40.835Z,15.19
2018-10-12T03:52:40.847Z,15.17
2018-10-12T03:53:40.818Z,15.22
2018-10-12T03:54:40.834Z,15.15
2018-10-12T03:55:40.821Z,15.18
2018-10-12T03:56:40.560Z,15.11
2018-10-12T03:57:40.817Z,15.21
2018-10-12T03:58:40.842Z,15.18
2018-10-12T03:59:40.545Z,15.21
2018-10-12T04:00:40.313Z,15.1
2018-10-12T04:01:40.540Z,15.15
2018-10-12T04:02:40.930Z,15.14
2018-10-12T04:03:40.545Z,15.14
2018-10-12T04:04:40.829Z,15.1
2018-10-12T04:05:40.553Z,15.18
2018-10-12T04:06:40.289Z,15.17
2018-10-12T04:07:40.305Z,15.18
2018-10-12T04:08:40.279Z,15.14
2018-10-12T04:09:40.546Z,15.18
2018-10-12T04:10:40.816Z,15.14
2018-10-12T04:11:40.786Z,15.14
2018-10-12T04:12:41.036Z,15.06
2018-10-12T04:13:40.529Z,15.02
2018-10-12T04:14:40.532Z,15.06
2018-10-12T04:15:40.793Z,15.03
2018-10-12T04:16:40.515Z,15.07
2018-10-12T04:17:40.516Z,15.07
2018-10-12T04:18:40.772Z,15.02
2018-10-12T04:19:40.785Z,15.07
2018-10-12T04:20:40.516Z,15.15
2018-10-12T04:21:40.513Z,15.07
2018-10-12T04:22:40.253Z,15.09
2018-10-12T04:23:40.513Z,15.02
2018-10-12T04:24:40.536Z,14.97
2018-10-12T04:25:40.776Z,14.97
2018-10-12T04:26:40.766Z,15.02
2018-10-12T04:27:40.491Z,14.96
2018-10-12T04:28:40.480Z,15.03
2018-10-12T04:29:40.490Z,14.89
2018-10-12T04:30:40.481Z,14.94
2018-10-12T04:31:40.742Z,14.91
2018-10-12T04:32:40.745Z,14.94
2018-10-12T04:33:40.742Z,14.97
2018-10-12T04:34:41.033Z,14.96
2018-10-12T04:35:40.778Z,14.84
2018-10-12T04:36:40.483Z,14.91
2018-10-12T04:37:40.727Z,14.85
2018-10-12T04:38:40.743Z,14.86
2018-10-12T04:39:40.482Z,14.89
2018-10-12T04:40:40.724Z,14.82
2018-10-12T04:41:40.732Z,14.78
2018-10-12T04:42:40.732Z,14.73
2018-10-12T04:43:40.470Z,14.84
2018-10-12T04:44:40.735Z,14.86
2018-10-12T04:45:40.492Z,14.86
2018-10-12T04:46:40.473Z,14.85
2018-10-12T04:47:40.462Z,14.88
2018-10-12T04:48:40.478Z,14.88
2018-10-12T04:49:40.489Z,14.89
2018-10-12T04:50:40.706Z,14.84
2018-10-12T04:51:40.471Z,14.79
2018-10-12T04:52:40.701Z,14.72
2018-10-12T04:53:40.546Z,14.72
2018-10-12T04:54:40.482Z,14.66
2018-10-12T04:55:40.714Z,14.66
2018-10-12T04:56:40.205Z,14.54
2018-10-12T04:57:40.213Z,14.59
2018-10-12T04:58:40.201Z,14.51
2018-10-12T04:59:40.708Z,14.51
2018-10-12T05:00:40.577Z,14.43
2018-10-12T05:01:40.714Z,14.48
2018-10-12T05:02:40.430Z,14.47
2018-10-12T05:03:40.683Z,14.47
2018-10-12T05:04:40.944Z,14.47
2018-10-12T05:05:40.682Z,14.47
2018-10-12T05:06:40.161Z,14.43
2018-10-12T05:07:40.240Z,14.47
2018-10-12T05:08:40.429Z,14.53
2018-10-12T05:09:40.706Z,14.58
2018-10-12T05:10:40.669Z,14.5
2018-10-12T05:11:40.429Z,14.51
2018-10-12T05:12:40.434Z,14.5
2018-10-12T05:13:40.412Z,14.48
2018-10-12T05:14:40.428Z,14.51
2018-10-12T05:15:40.672Z,14.53
2018-10-12T05:16:40.662Z,14.59
2018-10-12T05:17:40.396Z,14.58
2018-10-12T05:18:40.684Z,14.55
2018-10-12T05:19:40.195Z,14.55
2018-10-12T05:20:40.647Z,14.58
2018-10-12T05:21:40.392Z,14.66
2018-10-12T05:22:40.425Z,14.62
2018-10-12T05:23:40.129Z,14.58
2018-10-12T05:24:40.385Z,14.66
2018-10-12T05:25:40.144Z,14.62
2018-10-12T05:26:40.433Z,14.51
2018-10-12T05:27:40.645Z,14.54
2018-10-12T05:28:40.371Z,14.58
2018-10-12T05:29:40.637Z,14.54
2018-10-12T05:30:40.627Z,14.55
2018-10-12T05:31:40.386Z,14.62
2018-10-12T05:32:40.121Z,14.62
2018-10-12T05:33:40.367Z,14.53
2018-10-12T05:34:41.663Z,14.66
2018-10-12T05:35:40.356Z,14.65
2018-10-12T05:36:40.357Z,14.58
2018-10-12T05:37:40.351Z,14.58
2018-10-12T05:38:40.605Z,14.63
2018-10-12T05:39:40.366Z,14.58
2018-10-12T05:40:40.602Z,14.58
2018-10-12T05:41:40.336Z,14.58
2018-10-12T05:42:40.413Z,14.6
2018-10-12T05:43:40.873Z,14.6
2018-10-12T05:44:40.598Z,14.55
2018-10-12T05:45:40.602Z,14.55
2018-10-12T05:46:40.576Z,14.55
2018-10-12T05:47:40.319Z,14.65
2018-10-12T05:48:40.690Z,14.63
2018-10-12T05:49:40.346Z,14.58
2018-10-12T05:50:40.573Z,14.58
2018-10-12T05:51:40.315Z,14.58
2018-10-12T05:52:40.574Z,14.58
2018-10-12T05:53:40.597Z,14.58
2018-10-12T05:54:40.564Z,14.54
2018-10-12T05:55:40.748Z,14.53
2018-10-12T05:56:40.050Z,14.43
2018-10-12T05:57:40.562Z,14.44
2018-10-12T05:58:40.571Z,14.51
2018-10-12T05:59:40.558Z,14.53
2018-10-12T06:00:40.553Z,14.47
2018-10-12T06:01:40.307Z,14.43
2018-10-12T06:02:40.544Z,14.43
2018-10-12T06:03:40.550Z,14.47
2018-10-12T06:04:41.080Z,14.45
2018-10-12T06:05:40.278Z,14.5
2018-10-12T06:06:40.326Z,14.5
2018-10-12T06:07:40.565Z,14.53
2018-10-12T06:08:40.547Z,14.48
2018-10-12T06:09:41.018Z,14.48
2018-10-12T06:10:40.541Z,14.55
2018-10-12T06:11:40.277Z,14.58
2018-10-12T06:12:40.531Z,14.6
2018-10-12T06:13:40.293Z,14.55
2018-10-12T06:14:40.624Z,14.59
2018-10-12T06:15:40.972Z,14.6
2018-10-12T06:16:40.004Z,14.63
2018-10-12T06:17:40.253Z,14.63
2018-10-12T06:18:40.540Z,14.68
2018-10-12T06:19:40.527Z,14.66
2018-10-12T06:20:40.258Z,14.68
2018-10-12T06:21:40.891Z,14.78
2018-10-12T06:22:40.240Z,14.79
2018-10-12T06:23:40.246Z,14.79
2018-10-12T06:24:40.250Z,14.79
2018-10-12T06:25:39.983Z,14.84
2018-10-12T06:26:40.286Z,14.81
2018-10-12T06:27:40.501Z,14.91
2018-10-12T06:28:40.513Z,14.88
2018-10-12T06:29:40.235Z,14.88
2018-10-12T06:30:40.493Z,14.91
2018-10-12T06:31:40.499Z,14.94
2018-10-12T06:32:40.234Z,14.92
2018-10-12T06:33:40.480Z,15.04
2018-10-12T06:34:40.762Z,14.91
2018-10-12T06:35:40.480Z,14.91
2018-10-12T06:36:40.210Z,14.94
2018-10-12T06:37:39.951Z,14.97
2018-10-12T06:38:40.478Z,15.1
2018-10-12T06:39:40.470Z,15.1
2018-10-12T06:40:40.256Z,15.09
2018-10-12T06:41:41.143Z,15.06
2018-10-12T06:42:40.480Z,15.15
2018-10-12T06:43:40.481Z,15.04
2018-10-12T06:44:40.477Z,15.14
2018-10-12T06:45:39.941Z,15.17
2018-10-12T06:46:40.775Z,15.04
2018-10-12T06:47:40.220Z,15.1
2018-10-12T06:48:40.464Z,15.14
2018-10-12T06:49:40.215Z,15.09
2018-10-12T06:50:40.184Z,15.04
2018-10-12T06:51:40.457Z,15.15
2018-10-12T06:52:40.462Z,15.22
2018-10-12T06:53:40.189Z,15.15
2018-10-12T06:54:40.457Z,15.24
2018-10-12T06:55:40.176Z,15.22
2018-10-12T06:56:40.169Z,15.25
2018-10-12T06:57:40.200Z,15.21
2018-10-12T06:58:40.178Z,15.31
2018-10-12T06:59:40.191Z,15.37
2018-10-12T07:00:40.168Z,15.36
2018-10-12T07:01:39.908Z,15.24
2018-10-12T07:02:40.177Z,15.33
2018-10-12T07:03:40.472Z,15.33
2018-10-12T07:04:41.480Z,15.37
2018-10-12T07:05:40.619Z,15.42
2018-10-12T07:06:40.455Z,15.46
2018-10-12T07:07:39.921Z,15.54
2018-10-12T07:08:40.173Z,15.51
2018-10-12T07:09:40.428Z,15.64
2018-10-12T07:10:40.146Z,15.7
2018-10-12T07:11:40.425Z,16.13
2018-10-12T07:12:40.405Z,16.76
2018-10-12T07:13:40.251Z,17.41
2018-10-12T07:14:40.413Z,18.08
2018-10-12T07:15:40.153Z,18.62
2018-10-12T07:16:39.894Z,19.12
2018-10-12T07:17:40.187Z,19.58
2018-10-12T07:18:40.152Z,19.91
2018-10-12T07:19:40.447Z,20.21
2018-10-12T07:20:39.936Z,20.32
2018-10-12T07:21:40.162Z,20.6
2018-10-12T07:22:40.428Z,21.02
2018-10-12T07:23:40.446Z,21.32
2018-10-12T07:24:40.189Z,21.55
2018-10-12T07:25:39.909Z,21.77
2018-10-12T07:26:40.435Z,22.04
2018-10-12T07:27:40.445Z,22.2
2018-10-12T07:28:40.434Z,22.29
2018-10-12T07:29:40.184Z,22.62
2018-10-12T07:30:40.445Z,22.8
2018-10-12T07:31:40.010Z,22.83
2018-10-12T07:32:40.467Z,22.87
2018-10-12T07:33:40.205Z,22.84
2018-10-12T07:34:40.451Z,22.87
2018-10-12T07:35:40.194Z,23.02
2018-10-12T07:36:40.210Z,22.87
2018-10-12T07:37:40.451Z,22.98
2018-10-12T07:38:40.193Z,22.91
2018-10-12T07:39:40.229Z,22.94
2018-10-12T07:40:40.475Z,23.08
2018-10-12T07:41:40.216Z,23.09
2018-10-12T07:42:40.623Z,23.12
2018-10-12T07:43:39.966Z,23.31
2018-10-12T07:44:40.251Z,23.41
2018-10-12T07:45:40.508Z,23.32
2018-10-12T07:46:40.512Z,23.27
2018-10-12T07:47:40.242Z,23.31
2018-10-12T07:48:40.251Z,23.24
2018-10-12T07:49:40.563Z,23.15
2018-10-12T07:50:40.248Z,23.23
2018-10-12T07:51:40.251Z,22.94
2018-10-12T07:52:40.552Z,22.9
2018-10-12T07:53:40.263Z,23.03
2018-10-12T07:54:40.545Z,22.83
2018-10-12T07:55:40.021Z,22.63
2018-10-12T07:56:40.024Z,22.18
2018-10-12T07:57:40.559Z,21.67
2018-10-12T07:58:40.286Z,21.27
2018-10-12T07:59:40.540Z,20.9
2018-10-12T08:00:40.571Z,20.56
2018-10-12T08:01:40.304Z,20.25
2018-10-12T08:02:40.565Z,19.85
2018-10-12T08:03:40.563Z,19.51
2018-10-12T08:04:40.604Z,19.24
2018-10-12T08:05:41.932Z,19.02
2018-10-12T08:06:40.743Z,18.86
2018-10-12T08:07:40.613Z,18.74
2018-10-12T08:08:40.320Z,18.66
2018-10-12T08:09:40.897Z,18.58
2018-10-12T08:10:40.579Z,18.6
2018-10-12T08:11:40.597Z,18.52
2018-10-12T08:12:40.589Z,18.44
2018-10-12T08:13:40.504Z,18.49
2018-10-12T08:14:40.349Z,18.41
2018-10-12T08:15:40.356Z,18.41
2018-10-12T08:16:40.440Z,18.28
2018-10-12T08:17:40.336Z,18.29
2018-10-12T08:18:40.601Z,18.31
2018-10-12T08:19:40.340Z,18.25
2018-10-12T08:20:40.611Z,18.29
2018-10-12T08:21:40.595Z,18.28
2018-10-12T08:22:40.345Z,18.23
2018-10-12T08:23:40.607Z,18.31
2018-10-12T08:24:40.095Z,18.26
2018-10-12T08:25:40.608Z,18.29
2018-10-12T08:26:40.357Z,18.33
2018-10-12T08:27:40.609Z,18.37
2018-10-12T08:28:40.393Z,18.37
2018-10-12T08:29:40.611Z,18.49
2018-10-12T08:30:40.094Z,18.47
2018-10-12T08:31:40.573Z,18.49
2018-10-12T08:32:40.628Z,18.53
2018-10-12T08:33:40.352Z,18.58
2018-10-12T08:34:40.130Z,18.68
2018-10-12T08:35:41.665Z,18.66
2018-10-12T08:36:40.385Z,18.83
2018-10-12T08:37:40.632Z,18.81
2018-10-12T08:38:40.619Z,18.89
2018-10-12T08:39:40.617Z,18.93
2018-10-12T08:40:40.626Z,19.07
2018-10-12T08:41:40.409Z,19.11
2018-10-12T08:42:40.621Z,19.11
2018-10-12T08:43:40.364Z,19.19
2018-10-12T08:44:40.364Z,19.29
2018-10-12T08:45:40.621Z,19.27
2018-10-12T08:46:40.625Z,19.34
2018-10-12T08:47:40.367Z,19.27
2018-10-12T08:48:40.373Z,19.4
2018-10-12T08:49:40.372Z,19.45
2018-10-12T08:50:40.627Z,19.52
2018-10-12T08:51:40.617Z,19.47
2018-10-12T08:52:40.139Z,19.49
2018-10-12T08:53:40.367Z,19.47
2018-10-12T08:54:40.622Z,19.51
2018-10-12T08:55:40.694Z,19.55
2018-10-12T08:56:40.375Z,19.56
2018-10-12T08:57:40.379Z,19.64
2018-10-12T08:58:40.388Z,19.69
2018-10-12T08:59:40.637Z,19.67
2018-10-12T09:00:40.643Z,19.73
2018-10-12T09:01:40.372Z,19.69
2018-10-12T09:02:40.656Z,19.82
2018-10-12T09:03:40.366Z,19.84
2018-10-12T09:04:40.644Z,19.81
2018-10-12T09:05:40.868Z,19.94
2018-10-12T09:06:40.629Z,20.07
2018-10-12T09:07:40.647Z,20.14
2018-10-12T09:08:40.393Z,20.22
2018-10-12T09:09:40.456Z,20.25
2018-10-12T09:10:40.411Z,20.32
2018-10-12T09:11:40.394Z,20.31
2018-10-12T09:12:40.145Z,20.37
2018-10-12T09:13:40.672Z,20.37
2018-10-12T09:14:40.401Z,20.36
2018-10-12T09:15:40.149Z,20.37
2018-10-12T09:16:40.657Z,20.48
2018-10-12T09:17:40.430Z,20.48
2018-10-12T09:18:40.653Z,20.48
2018-10-12T09:19:40.182Z,20.52
2018-10-12T09:20:40.761Z,20.63
2018-10-12T09:21:40.751Z,20.67
2018-10-12T09:22:40.144Z,20.72
2018-10-12T09:23:40.673Z,20.87
2018-10-12T09:24:40.411Z,20.88
2018-10-12T09:25:40.660Z,21
2018-10-12T09:26:40.415Z,21.02
2018-10-12T09:27:40.684Z,21.12
2018-10-12T09:28:40.410Z,21.14
2018-10-12T09:29:40.435Z,21.25
2018-10-12T09:30:40.672Z,21.35
2018-10-12T09:31:40.674Z,21.37
2018-10-12T09:32:40.680Z,21.51
2018-10-12T09:33:40.434Z,21.54
2018-10-12T09:34:40.448Z,21.66
2018-10-12T09:35:40.689Z,21.64
2018-10-12T09:36:40.852Z,21.55
2018-10-12T09:37:40.451Z,21.69
2018-10-12T09:38:40.185Z,21.72
2018-10-12T09:39:40.614Z,21.69
2018-10-12T09:40:40.439Z,21.72
2018-10-12T09:41:40.693Z,21.67
2018-10-12T09:42:40.444Z,21.82
2018-10-12T09:43:40.447Z,21.92
2018-10-12T09:44:40.708Z,21.93
2018-10-12T09:45:40.706Z,21.89
2018-10-12T09:46:40.483Z,21.98
2018-10-12T09:47:40.705Z,22
2018-10-12T09:48:40.713Z,22.02
2018-10-12T09:49:40.472Z,22.07
2018-10-12T09:50:40.461Z,22.08
2018-10-12T09:51:40.726Z,22.2
2018-10-12T09:52:40.484Z,22.18
2018-10-12T09:53:40.724Z,22.35
2018-10-12T09:54:40.728Z,22.36
2018-10-12T09:55:40.479Z,22.45
2018-10-12T09:56:40.483Z,22.44
2018-10-12T09:57:40.757Z,22.53
2018-10-12T09:58:40.759Z,22.54
2018-10-12T09:59:40.748Z,22.57
2018-10-12T10:00:40.491Z,22.55
2018-10-12T10:01:40.605Z,22.66
2018-10-12T10:02:40.488Z,22.66
2018-10-12T10:03:40.512Z,22.6
2018-10-12T10:04:40.503Z,22.63
2018-10-12T10:05:40.254Z,22.69
2018-10-12T10:06:44.505Z,22.68
2018-10-12T10:07:41.314Z,22.63
2018-10-12T10:08:40.707Z,22.76
2018-10-12T10:09:40.529Z,22.78
2018-10-12T10:10:40.543Z,22.83
2018-10-12T10:11:40.265Z,22.8
2018-10-12T10:12:40.267Z,22.87
2018-10-12T10:13:40.601Z,22.94
2018-10-12T10:14:40.522Z,23.03
2018-10-12T10:15:41.097Z,22.99
2018-10-12T10:16:40.786Z,22.98
2018-10-12T10:17:40.802Z,23.03
2018-10-12T10:18:40.551Z,23.06
2018-10-12T10:19:40.555Z,23.02
2018-10-12T10:20:40.801Z,23.12
2018-10-12T10:21:40.797Z,23.1
2018-10-12T10:22:41.198Z,23.15
2018-10-12T10:23:40.806Z,23.18
2018-10-12T10:24:40.810Z,23.21
2018-10-12T10:25:40.817Z,23.27
2018-10-12T10:26:40.555Z,23.2
2018-10-12T10:27:40.815Z,23.31
2018-10-12T10:28:40.346Z,23.31
2018-10-12T10:29:40.822Z,23.36
2018-10-12T10:30:40.847Z,23.39
2018-10-12T10:31:40.574Z,23.39
2018-10-12T10:32:40.839Z,23.34
2018-10-12T10:33:40.582Z,23.44
2018-10-12T10:34:40.587Z,23.47
2018-10-12T10:35:40.326Z,23.4
2018-10-12T10:36:45.395Z,23.54
2018-10-12T10:37:40.623Z,23.56
2018-10-12T10:38:40.610Z,23.66
2018-10-12T10:39:40.611Z,23.61
2018-10-12T10:40:40.849Z,23.61
2018-10-12T10:41:40.609Z,23.62
2018-10-12T10:42:40.355Z,23.63
2018-10-12T10:43:40.606Z,23.71
2018-10-12T10:44:40.625Z,23.68
2018-10-12T10:45:40.625Z,23.76
2018-10-12T10:46:40.869Z,23.66
2018-10-12T10:47:40.623Z,23.66
2018-10-12T10:48:40.366Z,23.77
2018-10-12T10:49:40.897Z,23.81
2018-10-12T10:50:40.879Z,23.8
2018-10-12T10:51:40.638Z,23.76
2018-10-12T10:52:40.644Z,23.91
2018-10-12T10:53:40.877Z,23.87
2018-10-12T10:54:40.401Z,23.95
2018-10-12T10:55:40.668Z,23.99
2018-10-12T10:56:40.900Z,24.05
2018-10-12T10:57:40.658Z,24.01
2018-10-12T10:58:40.662Z,24.02
2018-10-12T10:59:40.937Z,24.02
2018-10-12T11:00:40.693Z,24.11
2018-10-12T11:01:40.923Z,24.11
2018-10-12T11:02:40.413Z,24.14
2018-10-12T11:03:40.933Z,24.24
2018-10-12T11:04:40.430Z,24.17
2018-10-12T11:05:40.935Z,24.29
2018-10-12T11:06:40.942Z,24.3
2018-10-12T11:07:40.434Z,24.29
2018-10-12T11:08:40.942Z,24.3
2018-10-12T11:09:40.702Z,24.39
2018-10-12T11:10:40.698Z,24.43
2018-10-12T11:11:40.696Z,24.5
2018-10-12T11:12:40.895Z,24.51
2018-10-12T11:13:40.759Z,24.53
2018-10-12T11:14:40.979Z,24.54
2018-10-12T11:15:40.715Z,24.6
2018-10-12T11:16:40.467Z,24.63
2018-10-12T11:17:40.776Z,24.76
2018-10-12T11:18:40.724Z,24.69
2018-10-12T11:19:41.066Z,24.8
2018-10-12T11:20:40.985Z,24.81
2018-10-12T11:21:40.989Z,24.81
2018-10-12T11:22:40.820Z,24.88
2018-10-12T11:23:40.997Z,24.96
2018-10-12T11:24:41.357Z,25.03
2018-10-12T11:25:40.484Z,24.96
2018-10-12T11:26:41.083Z,24.95
2018-10-12T11:27:40.746Z,24.96
2018-10-12T11:28:40.756Z,25.03
2018-10-12T11:29:41.031Z,25.07
2018-10-12T11:30:40.759Z,25.1
2018-10-12T11:31:41.078Z,25.22
2018-10-12T11:32:41.170Z,25.23
2018-10-12T11:33:41.037Z,25.16
2018-10-12T11:34:41.090Z,25.21
2018-10-12T11:35:40.541Z,25.18
2018-10-12T11:36:41.056Z,25.23
2018-10-12T11:37:41.058Z,25.21
2018-10-12T11:38:41.057Z,25.22
2018-10-12T11:39:40.825Z,25.23
2018-10-12T11:40:41.067Z,25.23
2018-10-12T11:41:40.802Z,25.28
2018-10-12T11:42:41.074Z,25.26
2018-10-12T11:43:40.823Z,25.17
2018-10-12T11:44:40.828Z,25.16
2018-10-12T11:45:41.102Z,25.16
2018-10-12T11:46:41.081Z,25.18
2018-10-12T11:47:41.645Z,25.16
2018-10-12T11:48:40.834Z,25.29
2018-10-12T11:49:41.102Z,25.21
2018-10-12T11:50:41.097Z,25.26
2018-10-12T11:51:41.105Z,25.22
2018-10-12T11:52:41.956Z,25.26
2018-10-12T11:53:40.866Z,25.25
2018-10-12T11:54:41.116Z,25.32
2018-10-12T11:55:41.116Z,25.32
2018-10-12T11:56:41.174Z,25.4
2018-10-12T11:57:41.163Z,25.4
2018-10-12T11:58:40.625Z,25.47
2018-10-12T11:59:41.217Z,25.4
2018-10-12T12:00:41.139Z,25.46
2018-10-12T12:01:41.149Z,25.48
2018-10-12T12:02:41.144Z,25.58
2018-10-12T12:03:41.144Z,25.59
2018-10-12T12:04:40.637Z,25.62
2018-10-12T12:05:41.149Z,25.68
2018-10-12T12:06:40.903Z,25.66
2018-10-12T12:07:40.915Z,25.66
2018-10-12T12:08:40.909Z,25.66
2018-10-12T12:09:41.171Z,25.63
2018-10-12T12:10:40.942Z,25.68
2018-10-12T12:11:41.197Z,25.66
2018-10-12T12:12:40.672Z,25.59
2018-10-12T12:13:41.491Z,25.46
2018-10-12T12:14:40.935Z,25.54
2018-10-12T12:15:41.208Z,25.55
2018-10-12T12:16:41.214Z,25.58
2018-10-12T12:17:41.207Z,25.59
2018-10-12T12:18:40.949Z,25.63
2018-10-12T12:19:41.234Z,25.59
2018-10-12T12:20:41.030Z,25.63
2018-10-12T12:21:40.964Z,25.55
2018-10-12T12:22:40.968Z,25.5
2018-10-12T12:23:40.978Z,25.5
2018-10-12T12:24:40.984Z,25.6
2018-10-12T12:25:41.002Z,25.62
2018-10-12T12:26:40.984Z,25.66
2018-10-12T12:27:41.294Z,25.65
2018-10-12T12:28:41.266Z,25.68
2018-10-12T12:29:40.753Z,25.68
2018-10-12T12:30:41.005Z,25.66
2018-10-12T12:31:41.285Z,25.77
2018-10-12T12:32:41.008Z,25.78
2018-10-12T12:33:41.010Z,25.75
2018-10-12T12:34:41.731Z,25.7
2018-10-12T12:35:42.985Z,25.77
2018-10-12T12:36:41.037Z,25.72
2018-10-12T12:37:41.033Z,25.75
2018-10-12T12:38:41.038Z,25.83
2018-10-12T12:39:41.068Z,25.78
2018-10-12T12:40:41.036Z,25.85
2018-10-12T12:41:41.481Z,25.88
2018-10-12T12:42:40.796Z,25.91
2018-10-12T12:43:41.343Z,25.88
2018-10-12T12:44:41.397Z,26.03
2018-10-12T12:45:41.066Z,26.06
2018-10-12T12:46:41.089Z,26.05
2018-10-12T12:47:41.480Z,26.03
2018-10-12T12:48:42.872Z,26.09
2018-10-12T12:49:41.083Z,26.05
2018-10-12T12:50:41.109Z,26.07
2018-10-12T12:51:41.338Z,26.06
2018-10-12T12:52:41.354Z,26.13
2018-10-12T12:53:41.141Z,26.06
2018-10-12T12:54:41.466Z,26.06
2018-10-12T12:55:41.367Z,25.9